createdAt,value
2022-12-03T00:01:01.946Z,100725.94
2022-12-03T00:04:04.128Z,100719.88
2022-12-03T00:07:06.243Z,100722.50
2022-12-03T00:10:09.029Z,100726.81
2022-12-03T00:13:11.036Z,100722.50
2022-12-03T00:16:13.060Z,100723.38
2022-12-03T00:19:15.334Z,100729.47
2022-12-03T00:22:17.282Z,100721.66
2022-12-03T00:25:19.291Z,100730.41
2022-12-03T00:28:22.792Z,100729.59
2022-12-03T00:31:25.858Z,100729.59
2022-12-03T00:34:28.046Z,100726.13
2022-12-03T00:37:30.210Z,100728.78
2022-12-03T00:40:32.343Z,100730.50
2022-12-03T00:43:34.357Z,100738.34
2022-12-03T00:46:36.418Z,100739.22
2022-12-03T00:49:38.808Z,100746.13
2022-12-03T00:52:40.826Z,100747.00
2022-12-03T00:55:42.825Z,100748.78
2022-12-03T00:58:44.859Z,100749.63
2022-12-03T01:01:46.918Z,100745.31
2022-12-03T01:04:49.143Z,100744.41
2022-12-03T01:07:51.306Z,100743.62
2022-12-03T01:10:53.340Z,100741.91
2022-12-03T01:13:55.350Z,100744.50
2022-12-03T01:16:57.408Z,100743.66
2022-12-03T01:19:59.508Z,100741.97
2022-12-03T01:23:01.454Z,100746.34
2022-12-03T01:26:03.523Z,100749.81
2022-12-03T01:29:06.253Z,100752.41
2022-12-03T01:32:21.923Z,100748.06
2022-12-03T01:35:23.970Z,100742.84
2022-12-03T01:38:26.059Z,100742.88
2022-12-03T01:41:29.083Z,100744.63
2022-12-03T01:44:33.355Z,100742.03
2022-12-03T01:47:37.143Z,100743.72
2022-12-03T01:50:39.332Z,100743.72
2022-12-03T01:53:42.811Z,100738.50
2022-12-03T01:56:46.322Z,100735.00
2022-12-03T01:59:49.512Z,100738.50
2022-12-03T02:03:02.381Z,100732.44
2022-12-03T02:06:04.791Z,100728.91
2022-12-03T02:09:08.773Z,100727.28
2022-12-03T02:12:11.490Z,100729.84
2022-12-03T02:15:13.874Z,100731.56
2022-12-03T02:18:15.903Z,100726.38
2022-12-03T02:21:29.600Z,100728.06
2022-12-03T02:25:03.350Z,100729.78
2022-12-03T02:28:08.429Z,100728.06
2022-12-03T02:31:10.742Z,100722.84
2022-12-03T02:34:42.789Z,100728.06
2022-12-03T02:37:47.528Z,100734.94
2022-12-03T02:40:52.874Z,100741.91
2022-12-03T02:43:55.016Z,100741.00
2022-12-03T02:46:57.099Z,100743.62
2022-12-03T02:50:00.042Z,100732.28
2022-12-03T02:53:09.335Z,100739.22
2022-12-03T02:56:15.537Z,100744.47
2022-12-03T02:59:17.622Z,100748.78
2022-12-03T03:02:19.968Z,100746.16
2022-12-03T03:05:23.830Z,100754.91
2022-12-03T03:08:27.360Z,100754.91
2022-12-03T03:11:29.574Z,100755.75
2022-12-03T03:14:33.080Z,100752.28
2022-12-03T03:17:35.529Z,100748.78
2022-12-03T03:20:38.600Z,100757.47
2022-12-03T03:23:40.850Z,100754.00
2022-12-03T03:26:42.866Z,100758.38
2022-12-03T03:29:44.943Z,100768.00
2022-12-03T03:32:47.025Z,100766.28
2022-12-03T03:35:49.755Z,100746.34
2022-12-03T03:38:52.291Z,100746.34
2022-12-03T03:41:54.350Z,100747.12
2022-12-03T03:44:56.594Z,100749.75
2022-12-03T03:48:00.433Z,100763.66
2022-12-03T03:51:03.952Z,100756.63
2022-12-03T03:54:07.130Z,100753.16
2022-12-03T03:57:09.158Z,100753.16
2022-12-03T04:00:12.269Z,100745.25
2022-12-03T04:03:14.298Z,100751.34
2022-12-03T04:06:16.481Z,100765.31
2022-12-03T04:09:18.528Z,100757.50
2022-12-03T04:12:39.204Z,100748.78
2022-12-03T04:15:41.198Z,100743.56
2022-12-03T04:18:43.191Z,100743.62
2022-12-03T04:22:03.809Z,100742.69
2022-12-03T04:25:25.454Z,100730.50
2022-12-03T04:28:46.247Z,100732.28
2022-12-03T04:32:06.905Z,100740.03
2022-12-03T04:35:28.617Z,100733.09
2022-12-03T04:38:30.857Z,100736.62
2022-12-03T04:41:32.903Z,100727.03
2022-12-03T04:44:37.961Z,100723.59
2022-12-03T04:47:40.213Z,100726.19
2022-12-03T04:50:42.290Z,100734.00
2022-12-03T04:53:46.321Z,100737.47
2022-12-03T04:56:48.628Z,100737.44
2022-12-03T04:59:50.548Z,100737.47
2022-12-03T05:02:52.790Z,100731.41
2022-12-03T05:05:54.795Z,100736.62
2022-12-03T05:08:56.750Z,100734.03
2022-12-03T05:11:58.717Z,100738.37
2022-12-03T05:15:00.801Z,100741.06
2022-12-03T05:18:02.859Z,100736.69
2022-12-03T05:21:05.163Z,100740.16
2022-12-03T05:24:07.331Z,100739.31
2022-12-03T05:27:09.309Z,100735.84
2022-12-03T05:30:11.644Z,100742.78
2022-12-03T05:33:13.913Z,100728.87
2022-12-03T05:36:15.969Z,100732.37
2022-12-03T05:39:17.954Z,100733.28
2022-12-03T05:42:38.313Z,100743.66
2022-12-03T05:45:42.479Z,100741.06
2022-12-03T05:48:48.071Z,100737.53
2022-12-03T05:51:53.742Z,100737.53
2022-12-03T05:55:00.034Z,100740.16
2022-12-03T05:58:02.106Z,100743.66
2022-12-03T06:01:04.371Z,100746.28
2022-12-03T06:04:06.571Z,100754.12
2022-12-03T06:07:13.779Z,100758.44
2022-12-03T06:10:21.832Z,100752.34
2022-12-03T06:13:23.843Z,100752.34
2022-12-03T06:16:25.839Z,100741.91
2022-12-03T06:19:27.844Z,100747.12
2022-12-03T06:22:29.948Z,100739.28
2022-12-03T06:25:32.009Z,100743.62
2022-12-03T06:28:33.931Z,100748.84
2022-12-03T06:31:36.564Z,100749.69
2022-12-03T06:34:38.841Z,100742.78
2022-12-03T06:37:41.397Z,100738.44
2022-12-03T06:40:43.401Z,100740.97
2022-12-03T06:43:45.314Z,100740.97
2022-12-03T06:46:47.608Z,100736.62
2022-12-03T06:49:49.730Z,100742.69
2022-12-03T06:52:51.774Z,100750.50
2022-12-03T06:55:53.733Z,100745.25
2022-12-03T06:58:56.195Z,100748.78
2022-12-03T07:01:58.930Z,100762.69
2022-12-03T07:05:00.975Z,100763.53
2022-12-03T07:08:03.121Z,100762.69
2022-12-03T07:11:05.441Z,100754.78
2022-12-03T07:14:11.537Z,100759.97
2022-12-03T07:17:13.815Z,100759.94
2022-12-03T07:20:16.479Z,100747.69
2022-12-03T07:23:18.383Z,100744.22
2022-12-03T07:26:20.476Z,100750.28
2022-12-03T07:29:22.490Z,100753.69
2022-12-03T07:32:24.549Z,100764.91
2022-12-03T07:35:26.670Z,100756.94
2022-12-03T07:38:28.736Z,100758.63
2022-12-03T07:41:31.185Z,100761.19
2022-12-03T07:44:33.240Z,100754.19
2022-12-03T07:47:35.228Z,100768.03
2022-12-03T07:50:37.346Z,100767.12
2022-12-03T07:53:39.319Z,100761.00
2022-12-03T07:56:41.296Z,100759.22
2022-12-03T07:59:43.319Z,100757.47
2022-12-03T08:02:45.417Z,100753.88
2022-12-03T08:05:47.603Z,100749.50
2022-12-03T08:08:49.653Z,100746.78
2022-12-03T08:11:52.315Z,100747.62
2022-12-03T08:14:54.542Z,100746.69
2022-12-03T08:18:01.142Z,100743.19
2022-12-03T08:21:03.137Z,100746.78
2022-12-03T08:24:19.806Z,100754.53
2022-12-03T08:27:23.777Z,100764.81
2022-12-03T08:30:25.915Z,100763.22
2022-12-03T08:33:33.771Z,100765.06
2022-12-03T08:36:36.605Z,100765.19
2022-12-03T08:39:49.795Z,100767.81
2022-12-03T08:42:51.832Z,100772.97
2022-12-03T08:45:56.305Z,100776.37
2022-12-03T08:48:58.510Z,100764.94
2022-12-03T08:52:10.448Z,100753.50
2022-12-03T08:55:34.482Z,100747.16
2022-12-03T08:58:44.756Z,100758.34
2022-12-03T09:01:48.442Z,100753.03
2022-12-03T09:04:52.230Z,100758.06
2022-12-03T09:07:54.393Z,100746.59
2022-12-03T09:10:56.754Z,100749.88
2022-12-03T09:13:59.138Z,100753.13
2022-12-03T09:17:01.195Z,100738.03
2022-12-03T09:20:04.624Z,100745.28
2022-12-03T09:23:07.319Z,100747.75
2022-12-03T09:26:09.369Z,100743.97
2022-12-03T09:29:12.546Z,100731.00
2022-12-03T09:32:18.334Z,100731.66
2022-12-03T09:35:20.899Z,100731.66
2022-12-03T09:38:22.886Z,100735.22
2022-12-03T09:41:26.327Z,100729.38
2022-12-03T09:44:33.675Z,100721.44
2022-12-03T09:47:35.684Z,100718.97
2022-12-03T09:50:40.546Z,100720.72
2022-12-03T09:53:42.730Z,100721.56
2022-12-03T09:56:44.714Z,100716.41
2022-12-03T09:59:47.809Z,100714.56
2022-12-03T10:02:51.674Z,100712.81
2022-12-03T10:05:53.983Z,100724.06
2022-12-03T10:08:56.581Z,100723.34
2022-12-03T10:11:59.997Z,100719.72
2022-12-03T10:15:02.339Z,100713.62
2022-12-03T10:18:19.244Z,100709.19
2022-12-03T10:21:29.382Z,100714.34
2022-12-03T10:24:32.858Z,100704.13
2022-12-03T10:27:34.916Z,100707.72
2022-12-03T10:30:36.960Z,100706.03
2022-12-03T10:33:45.033Z,100711.34
2022-12-03T10:36:46.974Z,100706.16
2022-12-03T10:39:56.210Z,100696.72
2022-12-03T10:43:26.891Z,100695.94
2022-12-03T10:46:29.001Z,100689.62
2022-12-03T10:49:31.070Z,100691.41
2022-12-03T10:52:33.288Z,100694.78
2022-12-03T10:55:39.887Z,100687.56
2022-12-03T10:58:42.455Z,100691.09
2022-12-03T11:01:45.018Z,100685.00
2022-12-03T11:04:47.266Z,100677.25
2022-12-03T11:07:49.673Z,100673.63
2022-12-03T11:10:57.897Z,100679.72
2022-12-03T11:14:02.392Z,100670.78
2022-12-03T11:17:04.314Z,100668.19
2022-12-03T11:20:10.725Z,100675.94
2022-12-03T11:23:12.700Z,100679.25
2022-12-03T11:26:19.638Z,100669.00
2022-12-03T11:29:49.898Z,100662.19
2022-12-03T11:32:54.974Z,100677.47
2022-12-03T11:36:31.778Z,100665.16
2022-12-03T11:39:44.901Z,100667.53
2022-12-03T11:42:49.033Z,100657.75
2022-12-03T11:45:51.408Z,100653.13
2022-12-03T11:48:55.777Z,100660.00
2022-12-03T11:52:00.834Z,100665.16
2022-12-03T11:55:14.665Z,100660.03
2022-12-03T11:58:22.397Z,100648.75
2022-12-03T12:01:39.860Z,100662.97
2022-12-03T12:04:46.654Z,100662.41
2022-12-03T12:07:49.079Z,100660.59
2022-12-03T12:10:51.275Z,100650.22
2022-12-03T12:13:55.516Z,100648.59
2022-12-03T12:16:58.563Z,100650.37
2022-12-03T12:20:26.830Z,100637.50
2022-12-03T12:23:29.615Z,100635.84
2022-12-03T12:26:31.554Z,100625.47
2022-12-03T12:29:34.781Z,100620.31
2022-12-03T12:32:48.680Z,100618.66
2022-12-03T12:35:51.301Z,100626.47
2022-12-03T12:38:53.623Z,100618.53
2022-12-03T12:42:06.637Z,100610.69
2022-12-03T12:45:32.679Z,100608.97
2022-12-03T12:48:35.712Z,100613.22
2022-12-03T12:51:49.820Z,100619.22
2022-12-03T12:54:51.852Z,100614.84
2022-12-03T12:58:00.105Z,100621.91
2022-12-03T13:01:06.607Z,100620.16
2022-12-03T13:04:20.432Z,100614.84
2022-12-03T13:07:22.605Z,100615.66
2022-12-03T13:10:36.826Z,100613.25
2022-12-03T13:13:44.126Z,100621.81
2022-12-03T13:16:48.466Z,100615.75
2022-12-03T13:20:00.519Z,100611.28
2022-12-03T13:23:26.313Z,100625.16
2022-12-03T13:26:39.879Z,100622.50
2022-12-03T13:29:43.446Z,100620.66
2022-12-03T13:32:46.203Z,100619.75
2022-12-03T13:35:48.215Z,100619.75
2022-12-03T13:38:50.193Z,100628.41
2022-12-03T13:42:12.095Z,100619.66
2022-12-03T13:45:14.008Z,100617.03
2022-12-03T13:48:23.593Z,100610.94
2022-12-03T13:51:33.030Z,100609.19
2022-12-03T13:54:39.038Z,100606.63
2022-12-03T13:57:40.976Z,100600.41
2022-12-03T14:00:43.408Z,100593.34
2022-12-03T14:03:45.500Z,100590.84
2022-12-03T14:06:47.610Z,100589.09
2022-12-03T14:09:49.654Z,100597.00
2022-12-03T14:12:51.783Z,100601.31
2022-12-03T14:15:54.037Z,100601.34
2022-12-03T14:18:56.257Z,100602.25
2022-12-03T14:22:00.623Z,100606.63
2022-12-03T14:25:02.713Z,100608.34
2022-12-03T14:28:08.739Z,100613.47
2022-12-03T14:31:10.798Z,100612.56
2022-12-03T14:34:12.763Z,100625.62
2022-12-03T14:37:15.265Z,100622.09
2022-12-03T14:40:21.467Z,100617.78
2022-12-03T14:43:24.031Z,100629.09
2022-12-03T14:46:26.114Z,100623.03
2022-12-03T14:49:28.226Z,100625.66
2022-12-03T14:52:30.203Z,100623.09
2022-12-03T14:55:32.327Z,100619.66
2022-12-03T14:58:34.695Z,100616.22
2022-12-03T15:01:36.935Z,100624.97
2022-12-03T15:04:40.595Z,100619.75
2022-12-03T15:07:42.950Z,100622.41
2022-12-03T15:10:44.966Z,100625.06
2022-12-03T15:13:46.973Z,100623.37
2022-12-03T15:16:49.058Z,100617.34
2022-12-03T15:19:51.402Z,100614.75
2022-12-03T15:22:53.902Z,100614.81
2022-12-03T15:25:55.967Z,100617.44
2022-12-03T15:28:58.131Z,100616.56
2022-12-03T15:32:01.151Z,100617.44
2022-12-03T15:35:03.420Z,100614.84
2022-12-03T15:38:05.568Z,100617.44
2022-12-03T15:41:24.823Z,100616.56
2022-12-03T15:44:26.847Z,100623.53
2022-12-03T15:47:28.864Z,100625.28
2022-12-03T15:50:34.527Z,100628.75
2022-12-03T15:53:40.080Z,100630.50
2022-12-03T15:56:42.505Z,100635.69
2022-12-03T15:59:44.991Z,100630.47
2022-12-03T16:02:52.682Z,100631.31
2022-12-03T16:05:55.157Z,100616.50
2022-12-03T16:08:57.514Z,100619.13
2022-12-03T16:11:59.585Z,100626.75
2022-12-03T16:15:01.688Z,100616.28
2022-12-03T16:18:04.175Z,100607.59
2022-12-03T16:21:06.729Z,100617.09
2022-12-03T16:24:09.138Z,100612.72
2022-12-03T16:27:11.514Z,100614.47
2022-12-03T16:30:14.649Z,100602.31
2022-12-03T16:33:17.712Z,100610.94
2022-12-03T16:36:21.121Z,100610.97
2022-12-03T16:39:23.127Z,100622.25
2022-12-03T16:42:25.741Z,100624.81
2022-12-03T16:45:47.266Z,100625.75
2022-12-03T16:48:50.217Z,100640.50
2022-12-03T16:51:52.283Z,100636.19
2022-12-03T16:54:54.269Z,100628.28
2022-12-03T16:57:56.216Z,100630.03
2022-12-03T17:00:58.651Z,100634.44
2022-12-03T17:04:00.699Z,100634.44
2022-12-03T17:07:02.715Z,100630.03
2022-12-03T17:10:05.588Z,100630.03
2022-12-03T17:13:09.968Z,100629.97
2022-12-03T17:16:12.754Z,100642.12
2022-12-03T17:19:15.488Z,100641.28
2022-12-03T17:22:17.874Z,100632.53
2022-12-03T17:25:19.986Z,100635.12
2022-12-03T17:28:21.917Z,100629.03
2022-12-03T17:31:24.904Z,100629.03
2022-12-03T17:34:27.123Z,100632.50
2022-12-03T17:37:29.345Z,100629.87
2022-12-03T17:40:31.388Z,100628.97
2022-12-03T17:43:33.777Z,100630.72
2022-12-03T17:46:37.236Z,100644.72
2022-12-03T17:49:39.362Z,100646.50
2022-12-03T17:52:41.436Z,100652.59
2022-12-03T17:55:45.204Z,100648.44
2022-12-03T17:58:47.381Z,100643.19
2022-12-03T18:01:49.580Z,100647.53
2022-12-03T18:04:51.619Z,100651.06
2022-12-03T18:07:53.664Z,100649.28
2022-12-03T18:10:59.319Z,100655.22
2022-12-03T18:14:01.768Z,100652.53
2022-12-03T18:17:05.196Z,100645.59
2022-12-03T18:20:08.269Z,100652.59
2022-12-03T18:23:11.168Z,100642.12
2022-12-03T18:26:14.232Z,100641.25
2022-12-03T18:29:16.445Z,100647.34
2022-12-03T18:32:29.241Z,100646.41
2022-12-03T18:35:31.970Z,100637.66
2022-12-03T18:38:34.695Z,100628.09
2022-12-03T18:41:36.921Z,100631.56
2022-12-03T18:44:39.114Z,100628.94
2022-12-03T18:47:41.312Z,100638.47
2022-12-03T18:50:43.794Z,100639.34
2022-12-03T18:53:45.959Z,100645.41
2022-12-03T18:56:47.974Z,100642.78
2022-12-03T18:59:50.226Z,100641.88
2022-12-03T19:03:08.134Z,100640.13
2022-12-03T19:06:18.603Z,100639.25
2022-12-03T19:09:28.612Z,100641.88
2022-12-03T19:12:31.696Z,100645.41
2022-12-03T19:15:39.093Z,100647.13
2022-12-03T19:18:41.928Z,100641.03
2022-12-03T19:21:44.867Z,100640.09
2022-12-03T19:24:47.545Z,100641.78
2022-12-03T19:27:52.373Z,100643.56
2022-12-03T19:31:02.295Z,100639.19
2022-12-03T19:34:12.236Z,100640.87
2022-12-03T19:37:26.707Z,100642.66
2022-12-03T19:40:29.331Z,100639.16
2022-12-03T19:43:34.873Z,100640.00
2022-12-03T19:46:37.923Z,100635.62
2022-12-03T19:49:41.604Z,100632.19
2022-12-03T19:52:44.132Z,100632.19
2022-12-03T19:55:47.764Z,100635.72
2022-12-03T19:58:56.327Z,100634.84
2022-12-03T20:02:06.982Z,100631.31
2022-12-03T20:05:15.325Z,100630.47
2022-12-03T20:08:32.883Z,100634.00
2022-12-03T20:12:02.692Z,100631.31
2022-12-03T20:15:26.477Z,100637.37
2022-12-03T20:18:39.215Z,100632.16
2022-12-03T20:21:51.243Z,100635.62
2022-12-03T20:25:12.056Z,100632.16
2022-12-03T20:28:24.206Z,100635.62
2022-12-03T20:31:40.773Z,100633.00
2022-12-03T20:34:45.757Z,100629.53
2022-12-03T20:37:48.163Z,100626.94
2022-12-03T20:40:51.387Z,100629.63
2022-12-03T20:43:55.084Z,100632.25
2022-12-03T20:46:59.347Z,100630.47
2022-12-03T20:50:11.788Z,100634.00
2022-12-03T20:53:27.163Z,100641.03
2022-12-03T20:56:35.009Z,100633.13
2022-12-03T20:59:45.905Z,100628.78
2022-12-03T21:02:49.050Z,100628.78
2022-12-03T21:05:59.326Z,100627.88
2022-12-03T21:09:02.635Z,100625.25
2022-12-03T21:12:05.306Z,100631.38
2022-12-03T21:15:07.862Z,100624.38
2022-12-03T21:18:13.091Z,100620.84
2022-12-03T21:21:16.661Z,100627.00
2022-12-03T21:24:19.184Z,100622.66
2022-12-03T21:27:21.938Z,100623.56
2022-12-03T21:30:24.193Z,100624.41
2022-12-03T21:33:26.800Z,100621.00
2022-12-03T21:36:28.839Z,100627.09
2022-12-03T21:39:30.975Z,100618.38
2022-12-03T21:42:36.450Z,100621.03
2022-12-03T21:45:41.282Z,100615.75
2022-12-03T21:48:49.082Z,100610.53
2022-12-03T21:51:51.290Z,100602.69
2022-12-03T21:54:55.266Z,100602.75
2022-12-03T21:57:57.443Z,100605.41
2022-12-03T22:00:59.458Z,100603.69
2022-12-03T22:04:02.215Z,100606.22
2022-12-03T22:07:04.994Z,100607.94
2022-12-03T22:10:09.516Z,100601.06
2022-12-03T22:13:12.207Z,100591.47
2022-12-03T22:16:18.046Z,100601.06
2022-12-03T22:19:23.579Z,100603.63
2022-12-03T22:22:25.605Z,100602.75
2022-12-03T22:25:27.583Z,100598.38
2022-12-03T22:28:30.052Z,100595.75
2022-12-03T22:31:32.461Z,100598.38
2022-12-03T22:34:34.619Z,100589.59
2022-12-03T22:37:36.731Z,100579.22
2022-12-03T22:40:39.706Z,100581.81
2022-12-03T22:43:41.848Z,100582.69
2022-12-03T22:46:43.909Z,100580.97
2022-12-03T22:49:45.884Z,100582.66
2022-12-03T22:52:47.982Z,100579.13
2022-12-03T22:55:58.576Z,100580.03
2022-12-03T22:59:01.141Z,100573.94
2022-12-03T23:02:03.189Z,100578.25
2022-12-03T23:05:05.580Z,100571.25
2022-12-03T23:08:11.023Z,100573.81
2022-12-03T23:11:13.566Z,100575.50
2022-12-03T23:14:15.667Z,100567.66
2022-12-03T23:17:17.743Z,100565.91
2022-12-03T23:20:19.840Z,100554.56
2022-12-03T23:23:24.183Z,100552.00
2022-12-03T23:26:27.123Z,100561.63
2022-12-03T23:29:29.392Z,100556.31
2022-12-03T23:32:31.431Z,100560.62
2022-12-03T23:35:33.965Z,100550.16
2022-12-03T23:38:36.107Z,100554.44
2022-12-03T23:41:38.102Z,100555.34
2022-12-03T23:44:40.157Z,100545.75
2022-12-03T23:47:42.154Z,100537.03
2022-12-03T23:50:44.493Z,100520.44
2022-12-03T23:53:47.067Z,100529.19
2022-12-03T23:56:49.418Z,100528.28
2022-12-03T23:59:51.582Z,100534.34
